createdAt,value
2022-10-01T00:01:14.974Z,2.10
2022-10-01T00:06:17.943Z,1.85
2022-10-01T00:11:17.098Z,2.72
2022-10-01T00:16:16.741Z,2.03
2022-10-01T00:21:16.549Z,2.25
2022-10-01T00:26:18.619Z,1.92
2022-10-01T00:31:16.021Z,2.22
2022-10-01T00:36:12.614Z,2.10
2022-10-01T00:41:10.056Z,2.20
2022-10-01T00:46:17.003Z,1.95
2022-10-01T00:51:14.033Z,3.08
2022-10-01T00:56:10.571Z,2.00
2022-10-01T01:01:07.088Z,1.90
2022-10-01T01:06:08.143Z,1.80
2022-10-01T01:11:16.086Z,2.20
2022-10-01T01:16:21.929Z,1.90
2022-10-01T01:21:31.088Z,1.77
2022-10-01T01:26:46.810Z,1.70
2022-10-01T01:31:46.655Z,2.00
2022-10-01T01:36:48.183Z,2.20
2022-10-01T01:41:55.401Z,2.10
2022-10-01T01:46:56.344Z,1.80
2022-10-01T01:51:59.648Z,1.90
2022-10-01T01:56:58.290Z,1.75
2022-10-01T02:01:54.706Z,1.88
2022-10-01T02:07:15.236Z,1.85
2022-10-01T02:12:31.673Z,1.98
2022-10-01T02:17:34.772Z,2.33
2022-10-01T02:22:42.114Z,2.42
2022-10-01T02:27:40.695Z,1.80
2022-10-01T02:32:39.922Z,1.90
2022-10-01T02:37:38.824Z,2.40
2022-10-01T02:42:37.544Z,1.98
2022-10-01T02:47:40.739Z,2.35
2022-10-01T02:52:41.490Z,2.88
2022-10-01T02:57:38.132Z,2.83
2022-10-01T03:02:34.791Z,2.88
2022-10-01T03:07:34.577Z,2.75
2022-10-01T03:12:31.087Z,3.47
2022-10-01T03:17:27.428Z,2.80
2022-10-01T03:22:23.858Z,2.97
2022-10-01T03:27:21.260Z,3.33
2022-10-01T03:32:18.264Z,2.90
2022-10-01T03:37:14.786Z,4.10
2022-10-01T03:42:11.140Z,3.53
2022-10-01T03:47:07.488Z,3.95
2022-10-01T03:52:06.459Z,3.20
2022-10-01T03:57:03.004Z,3.65
2022-10-01T04:01:59.527Z,3.20
2022-10-01T04:06:55.965Z,2.97
2022-10-01T04:11:52.686Z,3.22
2022-10-01T04:16:52.388Z,2.90
2022-10-01T04:21:49.342Z,3.33
2022-10-01T04:26:45.755Z,2.75
2022-10-01T04:31:42.152Z,2.78
2022-10-01T04:36:38.528Z,3.00
2022-10-01T04:41:35.125Z,3.00
2022-10-01T04:46:31.692Z,2.53
2022-10-01T04:51:28.067Z,2.60
2022-10-01T04:56:24.405Z,2.60
2022-10-01T05:01:20.844Z,2.30
2022-10-01T05:06:17.322Z,2.60
2022-10-01T05:11:13.728Z,2.28
2022-10-01T05:16:11.751Z,2.20
2022-10-01T05:21:09.889Z,2.03
2022-10-01T05:26:06.257Z,1.80
2022-10-01T05:31:04.025Z,2.13
2022-10-01T05:36:00.938Z,1.80
2022-10-01T05:40:57.296Z,1.80
2022-10-01T05:45:53.730Z,1.77
2022-10-01T05:50:50.145Z,1.60
2022-10-01T05:55:46.945Z,1.50
2022-10-01T06:00:43.576Z,1.27
2022-10-01T06:05:40.064Z,1.08
2022-10-01T06:10:37.264Z,1.38
2022-10-01T06:15:37.668Z,1.95
2022-10-01T06:20:34.932Z,1.35
2022-10-01T06:25:31.730Z,1.48
2022-10-01T06:30:31.718Z,1.08
2022-10-01T06:35:28.777Z,1.30
2022-10-01T06:40:25.209Z,1.10
2022-10-01T06:45:21.553Z,1.25
2022-10-01T06:50:17.982Z,1.25
2022-10-01T06:55:16.783Z,1.30
2022-10-01T07:00:14.457Z,1.00
2022-10-01T07:05:11.013Z,1.10
2022-10-01T07:10:09.603Z,1.38
2022-10-01T07:15:08.340Z,1.15
2022-10-01T07:20:05.266Z,2.10
2022-10-01T07:25:01.826Z,2.05
2022-10-01T07:29:59.095Z,2.85
2022-10-01T07:34:55.514Z,3.22
2022-10-01T07:39:52.047Z,4.45
2022-10-01T07:44:48.462Z,2.83
2022-10-01T07:49:44.960Z,3.78
2022-10-01T07:54:41.386Z,3.30
2022-10-01T07:59:39.137Z,1.67
2022-10-01T08:04:54.346Z,0.65
2022-10-01T08:09:50.736Z,1.23
2022-10-01T08:14:47.845Z,0.70
2022-10-01T08:19:45.072Z,0.70
2022-10-01T08:24:41.433Z,0.80
2022-10-01T08:29:38.174Z,0.60
2022-10-01T09:04:23.935Z,1.77
2022-10-01T09:09:56.202Z,2.00
2022-10-01T09:15:23.406Z,2.35
2022-10-01T09:20:32.824Z,2.92
2022-10-01T09:25:29.854Z,3.45
2022-10-01T09:30:29.082Z,3.65
2022-10-01T09:35:44.189Z,4.18
2022-10-01T09:40:55.033Z,3.95
2022-10-01T09:45:51.912Z,4.80
2022-10-01T09:50:58.926Z,5.25
2022-10-01T09:56:01.914Z,5.53
2022-10-01T10:01:01.554Z,5.30
2022-10-01T10:06:02.581Z,5.68
2022-10-01T10:11:10.407Z,6.72
2022-10-01T10:16:15.441Z,6.90
2022-10-01T10:21:16.197Z,6.90
2022-10-01T10:26:20.201Z,6.45
2022-10-01T10:31:22.412Z,6.68
2022-10-01T10:36:22.136Z,7.68
2022-10-01T10:41:25.986Z,9.23
2022-10-01T10:46:32.661Z,8.20
2022-10-01T10:51:29.136Z,6.40
2022-10-01T10:56:26.150Z,6.90
2022-10-01T11:01:29.866Z,5.90
2022-10-01T11:06:26.781Z,5.65
2022-10-01T11:11:53.454Z,5.63
2022-10-01T11:17:07.855Z,5.75
2022-10-01T11:22:19.598Z,5.18
2022-10-01T11:27:40.636Z,5.40
2022-10-01T11:33:18.877Z,4.35
2022-10-01T11:38:23.875Z,4.53
2022-10-01T11:43:44.256Z,5.57
2022-10-01T11:48:48.527Z,4.90
2022-10-01T11:53:54.163Z,4.68
2022-10-01T11:58:59.726Z,4.25
2022-10-01T12:04:11.364Z,4.63
2022-10-01T12:09:17.186Z,5.15
2022-10-01T12:14:19.819Z,4.75
2022-10-01T12:19:31.270Z,3.40
2022-10-01T12:24:39.206Z,3.92
2022-10-01T12:29:49.165Z,2.15
2022-10-01T12:34:54.297Z,2.17
2022-10-01T12:39:56.854Z,3.10
2022-10-01T12:45:02.039Z,4.20
2022-10-01T12:50:35.682Z,4.80
2022-10-01T12:55:46.142Z,4.57
2022-10-01T13:01:00.056Z,3.50
2022-10-01T13:05:59.162Z,3.10
2022-10-01T13:11:03.328Z,2.80
2022-10-01T13:16:24.502Z,2.28
2022-10-01T13:21:45.963Z,2.15
2022-10-01T13:27:13.755Z,1.40
2022-10-01T13:32:35.861Z,1.30
2022-10-01T13:37:38.976Z,0.95
2022-10-01T13:42:45.665Z,1.10
2022-10-01T13:47:42.127Z,0.50
2022-10-01T13:52:39.251Z,0.50
2022-10-01T13:57:38.243Z,1.05
2022-10-01T14:02:38.178Z,1.05
2022-10-01T14:07:38.898Z,2.03
2022-10-01T14:12:56.235Z,1.38
2022-10-01T14:17:55.747Z,0.93
2022-10-01T14:22:58.187Z,5.63
2022-10-01T14:28:16.382Z,1.95
2022-10-01T14:33:35.398Z,6.47
2022-10-01T14:38:31.835Z,1.05
2022-10-01T14:43:30.954Z,1.50
2022-10-01T14:48:30.933Z,2.38
2022-10-01T14:53:29.933Z,1.63
2022-10-01T14:58:48.922Z,1.65
2022-10-01T15:03:45.909Z,2.33
2022-10-01T15:08:47.855Z,1.42
2022-10-01T15:13:46.891Z,2.25
2022-10-01T15:18:53.431Z,1.52
2022-10-01T15:23:50.582Z,1.42
2022-10-01T15:28:47.100Z,1.40
2022-10-01T15:33:43.907Z,1.42
2022-10-01T15:38:44.333Z,1.63
2022-10-01T15:43:42.059Z,1.58
2022-10-01T15:48:38.439Z,1.42
2022-10-01T15:53:35.163Z,1.50
2022-10-01T15:58:35.665Z,2.25
2022-10-01T16:03:49.374Z,1.85
2022-10-01T16:08:53.061Z,2.95
2022-10-01T16:14:30.125Z,1.70
2022-10-01T16:19:30.401Z,1.80
2022-10-01T16:24:28.430Z,1.73
2022-10-01T16:29:25.631Z,1.77
2022-10-01T16:34:22.041Z,1.58
2022-10-01T16:39:18.442Z,2.10
2022-10-01T16:44:14.852Z,2.17
2022-10-01T16:49:14.037Z,2.42
2022-10-01T16:54:22.220Z,2.15
2022-10-01T17:04:15.766Z,2.25
2022-10-01T17:09:12.237Z,2.60
2022-10-01T17:14:17.637Z,1.95
2022-10-01T17:19:14.669Z,2.17
2022-10-01T17:24:11.229Z,2.00
2022-10-01T17:29:09.638Z,2.58
2022-10-01T17:34:07.016Z,2.90
2022-10-01T17:39:03.866Z,3.37
2022-10-01T17:44:00.482Z,3.15
2022-10-01T17:48:56.873Z,3.03
2022-10-01T17:53:54.895Z,2.45
2022-10-01T17:58:53.210Z,4.05
2022-10-01T18:08:56.764Z,1.83
2022-10-01T18:13:53.466Z,1.90
2022-10-01T18:19:52.300Z,3.03
2022-10-01T18:24:15.530Z,1.80
2022-10-01T18:29:18.070Z,1.83
2022-10-01T18:34:43.843Z,2.13
2022-10-01T18:39:44.646Z,1.40
2022-10-01T18:44:41.384Z,2.10
2022-10-01T18:49:59.772Z,1.30
2022-10-01T18:55:17.722Z,1.60
2022-10-01T19:00:19.176Z,1.23
2022-10-01T19:10:28.707Z,1.42
2022-10-01T19:15:36.655Z,1.80
2022-10-01T19:20:41.642Z,2.17
2022-10-01T19:26:01.657Z,2.30
2022-10-01T19:31:03.856Z,3.08
2022-10-01T19:36:01.404Z,2.65
2022-10-01T19:41:16.188Z,1.90
2022-10-01T19:46:26.450Z,2.47
2022-10-01T19:51:49.146Z,2.58
2022-10-01T19:56:51.526Z,3.10
2022-10-01T20:01:59.233Z,2.60
2022-10-01T20:07:05.013Z,2.95
2022-10-01T20:12:20.253Z,1.70
2022-10-01T20:17:38.398Z,1.60
2022-10-01T20:23:07.384Z,1.85
2022-10-01T20:28:10.203Z,3.13
2022-10-01T20:33:23.838Z,3.67
2022-10-01T20:38:30.448Z,2.10
2022-10-01T20:43:38.853Z,1.90
2022-10-01T20:48:43.468Z,2.08
2022-10-01T20:53:51.010Z,1.50
2022-10-01T20:58:52.360Z,1.70
2022-10-01T21:04:01.354Z,1.88
2022-10-01T21:09:03.193Z,1.30
2022-10-01T21:14:22.988Z,2.42
2022-10-01T21:19:46.038Z,1.73
2022-10-01T21:25:14.033Z,1.83
2022-10-01T21:30:18.111Z,1.90
2022-10-01T21:35:45.992Z,2.10
2022-10-01T21:41:24.320Z,2.17
2022-10-01T21:51:23.846Z,3.22
2022-10-01T21:56:46.193Z,1.88
2022-10-01T22:02:01.770Z,1.50
2022-10-01T22:07:18.321Z,1.80
2022-10-01T22:12:15.114Z,1.08
2022-10-01T22:17:17.796Z,1.45
2022-10-01T22:22:23.888Z,1.35
2022-10-01T22:27:24.991Z,1.30
2022-10-01T22:32:24.646Z,1.02
2022-10-01T22:37:53.809Z,1.20
2022-10-01T22:43:04.051Z,1.00
2022-10-01T22:48:20.597Z,1.08
2022-10-01T22:53:43.273Z,1.42
2022-10-01T22:59:06.329Z,1.50
2022-10-01T23:04:09.357Z,0.90
2022-10-01T23:09:14.881Z,1.30
2022-10-01T23:14:37.139Z,1.35
2022-10-01T23:19:33.500Z,1.08
2022-10-01T23:24:39.252Z,1.02
2022-10-01T23:30:08.606Z,1.58
2022-10-01T23:35:12.966Z,0.98
2022-10-01T23:40:17.873Z,1.45
2022-10-01T23:46:02.478Z,1.40
2022-10-01T23:51:06.787Z,1.55
2022-10-01T23:56:30.378Z,1.70
